Time;durP1;ratioP1;P1;durP2;ratioP2;P2;SDS_P1;SDS_P2;PMS_P1;PMS_P2;Temp;Humidity;BMP_temperature;BMP_pressure;BME280_temperature;BME280_humidity;BME280_pressure;Samples;Min_cycle;Max_cycle;Signal;HPM_P1;HPM_P2
2023/04/27 00:00:33;;;;;;;2.47;2.20;;;12.00;67.30;11.90;96462.00;;;;5089610;28;20246;-83
2023/04/27 00:03:04;;;;;;;2.90;2.10;;;12.00;67.30;11.90;96464.00;;;;5078509;28;20212;-84
2023/04/27 00:05:34;;;;;;;2.87;2.27;;;12.00;67.20;11.90;96454.00;;;;5096507;28;20310;-84
2023/04/27 00:08:01;;;;;;;3.47;2.13;;;11.90;67.20;11.90;96447.00;;;;5087703;28;20278;-84
2023/04/27 00:10:28;;;;;;;2.17;1.93;;;11.90;67.10;11.90;96455.00;;;;5095944;28;20282;-84
2023/04/27 00:12:58;;;;;;;1.90;1.80;;;11.90;66.80;11.80;96454.00;;;;5097465;28;20710;-82
2023/04/27 00:15:25;;;;;;;3.10;2.27;;;11.90;66.90;11.80;96460.00;;;;5097685;28;20275;-83
2023/04/27 00:17:52;;;;;;;2.33;2.07;;;11.90;66.90;11.80;96463.00;;;;5098965;28;20278;-83
2023/04/27 00:20:20;;;;;;;3.47;1.83;;;11.90;67.00;11.80;96469.00;;;;5094763;28;20286;-84
2023/04/27 00:22:48;;;;;;;3.00;2.03;;;11.80;67.00;11.70;96462.00;;;;5089133;28;20257;-84
2023/04/27 00:25:15;;;;;;;2.13;1.93;;;11.80;67.20;11.70;96460.00;;;;5098695;28;20234;-84
2023/04/27 00:27:43;;;;;;;2.53;2.33;;;11.80;67.40;11.70;96453.00;;;;5094260;28;20215;-84
2023/04/27 00:30:14;;;;;;;3.17;1.67;;;11.80;67.60;11.70;96452.00;;;;5098259;28;20282;-84
2023/04/27 00:32:41;;;;;;;2.33;2.13;;;11.80;67.90;11.70;96446.00;;;;5097183;28;20215;-84
2023/04/27 00:35:10;;;;;;;2.37;2.10;;;11.80;68.00;11.70;96453.00;;;;5098405;28;20230;-84
2023/04/27 00:37:37;;;;;;;3.67;2.00;;;11.70;67.90;11.70;96459.00;;;;5097930;28;20201;-84
2023/04/27 00:40:06;;;;;;;2.23;2.03;;;11.70;68.00;11.70;96460.00;;;;5097044;28;20187;-83
2023/04/27 00:42:34;;;;;;;2.37;1.83;;;11.70;68.20;11.70;96458.00;;;;5097804;28;20215;-84
2023/04/27 00:45:02;;;;;;;2.17;1.90;;;11.70;68.40;11.70;96467.00;;;;5092304;28;20214;-85
2023/04/27 00:47:32;;;;;;;2.80;2.50;;;11.80;68.70;11.70;96451.00;;;;5103272;28;20272;-85
2023/04/27 00:50:02;;;;;;;3.47;2.10;;;11.70;68.80;11.70;96456.00;;;;5097149;28;20229;-84
2023/04/27 00:52:30;;;;;;;2.33;1.80;;;11.70;68.90;11.70;96461.00;;;;5096559;28;20423;-85
2023/04/27 00:54:58;;;;;;;1.83;1.73;;;11.80;69.00;11.80;96459.00;;;;5089107;28;20670;-83
2023/04/27 00:57:25;;;;;;;3.23;2.10;;;11.80;69.10;11.80;96458.00;;;;5089148;28;20188;-85
2023/04/27 00:59:53;;;;;;;2.90;2.13;;;11.80;69.20;11.80;96455.00;;;;5088802;28;20674;-83
2023/04/27 01:02:20;;;;;;;2.33;2.17;;;11.80;69.00;11.80;96460.00;;;;5092936;28;20580;-82
2023/04/27 01:04:50;;;;;;;2.53;1.80;;;11.80;68.90;11.90;96453.00;;;;5093548;28;20210;-83
2023/04/27 01:07:18;;;;;;;1.93;1.80;;;11.80;68.80;11.90;96434.00;;;;5098641;28;20215;-83
2023/04/27 01:09:46;;;;;;;3.67;2.20;;;11.80;68.80;11.90;96449.00;;;;5092737;28;20668;-84
2023/04/27 01:12:13;;;;;;;2.93;2.00;;;11.90;68.90;11.90;96448.00;;;;5097560;28;20218;-84
2023/04/27 01:14:40;;;;;;;2.57;1.93;;;11.90;68.90;11.90;96458.00;;;;5096753;28;20195;-83
2023/04/27 01:17:07;;;;;;;2.43;2.23;;;11.90;68.80;11.90;96452.00;;;;5098622;28;20259;-84
2023/04/27 01:19:35;;;;;;;2.47;2.27;;;11.90;68.80;11.90;96453.00;;;;5097976;28;20195;-83
2023/04/27 01:22:03;;;;;;;2.30;2.10;;;11.90;69.60;11.90;96452.00;;;;5102736;28;20198;-83
2023/04/27 01:24:32;;;;;;;2.40;2.20;;;11.90;69.00;11.90;96446.00;;;;5103702;28;20257;-83
2023/04/27 01:27:00;;;;;;;3.60;2.70;;;11.90;68.90;11.90;96447.00;;;;5103741;28;20195;-84
2023/04/27 01:29:27;;;;;;;3.77;2.63;;;11.90;68.70;11.90;96449.00;;;;5105206;28;20815;-83
2023/04/27 01:31:55;;;;;;;2.40;2.03;;;11.90;68.50;11.90;96455.00;;;;5096730;28;20203;-83
2023/04/27 01:34:22;;;;;;;2.47;2.20;;;11.90;68.50;11.90;96461.00;;;;5103137;28;20237;-83
2023/04/27 01:36:49;;;;;;;2.50;2.30;;;11.90;68.50;11.90;96452.00;;;;5104963;28;20195;-83
2023/04/27 01:39:17;;;;;;;4.07;2.70;;;11.90;68.60;11.90;96442.00;;;;5104308;28;20204;-82
2023/04/27 01:41:48;;;;;;;2.40;2.20;;;11.90;68.50;11.90;96446.00;;;;5103739;28;20200;-83
2023/04/27 01:44:15;;;;;;;3.03;2.07;;;11.90;69.10;11.80;96450.00;;;;5101345;28;20215;-83
2023/04/27 01:46:43;;;;;;;3.80;2.10;;;11.90;68.40;11.80;96451.00;;;;5097104;28;20635;-84
2023/04/27 01:49:10;;;;;;;3.33;2.33;;;11.90;68.30;11.80;96449.00;;;;5101861;28;20626;-83
2023/04/27 01:51:38;;;;;;;2.40;2.20;;;11.90;68.40;11.80;96447.00;;;;5087906;28;20275;-83
2023/04/27 01:54:05;;;;;;;2.33;2.03;;;11.80;68.30;11.80;96452.00;;;;5079635;28;20223;-84
2023/04/27 01:56:32;;;;;;;2.57;2.30;;;11.80;68.40;11.80;96451.00;;;;5103201;28;20231;-84
2023/04/27 01:59:01;;;;;;;2.73;2.30;;;11.80;68.40;11.70;96457.00;;;;5101706;28;20266;-84
2023/04/27 02:01:30;;;;;;;3.57;2.67;;;11.80;68.40;11.70;96453.00;;;;5094741;28;20238;-84
2023/04/27 02:03:57;;;;;;;2.27;2.07;;;11.80;68.50;11.70;96457.00;;;;5104585;28;20700;-82
2023/04/27 02:06:24;;;;;;;2.57;2.33;;;11.80;68.50;11.70;96457.00;;;;5104647;28;20191;-83
2023/04/27 02:08:51;;;;;;;2.73;2.27;;;11.70;68.70;11.70;96459.00;;;;5103752;28;20719;-82
2023/04/27 02:11:19;;;;;;;2.67;2.23;;;11.70;68.60;11.70;96460.00;;;;5105224;28;20195;-83
2023/04/27 02:13:47;;;;;;;3.17;2.40;;;11.70;68.50;11.70;96458.00;;;;5102930;28;20219;-83
2023/04/27 02:16:16;;;;;;;2.90;2.70;;;11.70;68.70;11.70;96453.00;;;;5105531;28;20194;-82
2023/04/27 02:18:43;;;;;;;2.83;2.53;;;11.70;68.70;11.70;96460.00;;;;5066374;28;20257;-83
2023/04/27 02:21:11;;;;;;;3.30;2.20;;;11.70;68.70;11.70;96455.00;;;;5096325;28;20411;-84
2023/04/27 02:23:38;;;;;;;3.00;2.57;;;11.70;68.80;11.60;96466.00;;;;5098012;28;20287;-83
2023/04/27 02:26:06;;;;;;;3.27;2.10;;;11.70;68.60;11.60;96454.00;;;;5102859;28;20191;-82
2023/04/27 02:28:33;;;;;;;2.70;2.23;;;11.70;68.80;11.60;96462.00;;;;5103810;28;20198;-83
2023/04/27 02:31:02;;;;;;;2.50;2.30;;;11.60;68.80;11.60;96463.00;;;;5103716;28;20215;-83
2023/04/27 02:33:31;;;;;;;2.20;2.10;;;11.70;69.00;11.60;96459.00;;;;5093563;28;20240;-83
2023/04/27 02:35:58;;;;;;;2.60;2.40;;;11.70;69.10;11.60;96462.00;;;;5104018;28;20231;-83
2023/04/27 02:38:25;;;;;;;4.37;2.70;;;11.70;69.10;11.60;96447.00;;;;5097429;28;20195;-82
2023/04/27 02:40:54;;;;;;;2.57;2.03;;;11.70;69.20;11.60;96455.00;;;;5102352;28;20573;-82
2023/04/27 02:43:22;;;;;;;3.97;2.40;;;11.60;69.30;11.60;96464.00;;;;5105490;28;20715;-82
2023/04/27 02:45:50;;;;;;;3.60;2.40;;;11.60;69.40;11.60;96461.00;;;;5105526;28;20230;-83
2023/04/27 02:48:17;;;;;;;2.73;2.10;;;11.60;69.60;11.70;96471.00;;;;5105396;28;20284;-83
2023/04/27 02:50:46;;;;;;;2.70;2.17;;;11.60;69.60;11.70;96464.00;;;;5106287;28;20282;-83
2023/04/27 02:53:14;;;;;;;2.30;2.10;;;11.60;69.80;11.60;96462.00;;;;5105978;28;20716;-83
2023/04/27 02:55:47;;;;;;;2.40;2.03;;;11.60;69.80;11.60;96461.00;;;;5104896;28;20195;-84
2023/04/27 02:58:17;;;;;;;2.43;2.27;;;11.60;69.70;11.60;96463.00;;;;5095759;28;20198;-82
2023/04/27 03:00:45;;;;;;;2.40;2.20;;;11.60;69.70;11.60;96468.00;;;;5106630;28;20195;-84
2023/04/27 03:03:12;;;;;;;2.80;2.30;;;11.70;69.70;11.60;96472.00;;;;5107190;28;20230;-83
2023/04/27 03:05:40;;;;;;;2.50;2.27;;;11.60;69.60;11.50;96471.00;;;;5100920;28;20226;-83
2023/04/27 03:08:09;;;;;;;2.23;2.00;;;11.60;69.60;11.50;96472.00;;;;5107144;28;20199;-82
2023/04/27 03:10:36;;;;;;;2.40;2.20;;;11.60;69.40;11.50;96474.00;;;;5105725;28;20283;-83
2023/04/27 03:13:04;;;;;;;2.20;2.10;;;11.60;69.30;11.40;96467.00;;;;5112679;28;20219;-85
2023/04/27 03:15:32;;;;;;;2.30;2.10;;;11.60;69.10;11.30;96463.00;;;;5108865;28;20215;-84
2023/04/27 03:17:59;;;;;;;2.40;2.00;;;11.50;69.10;11.30;96467.00;;;;5100476;28;20215;-84
2023/04/27 03:20:26;;;;;;;3.57;2.50;;;11.50;68.80;11.30;96468.00;;;;5095502;28;20200;-84
2023/04/27 03:22:54;;;;;;;2.60;2.40;;;11.50;68.80;11.20;96473.00;;;;5087482;28;20310;-84
2023/04/27 03:25:23;;;;;;;2.60;2.17;;;11.40;68.60;11.20;96476.00;;;;5096364;28;20199;-86
2023/04/27 03:27:50;;;;;;;2.53;1.93;;;11.40;68.30;11.20;96488.00;;;;5090979;28;20652;-84
2023/04/27 03:30:18;;;;;;;2.87;2.43;;;11.30;68.10;11.10;96480.00;;;;5098540;28;20210;-84
2023/04/27 03:32:45;;;;;;;4.27;2.70;;;11.30;68.00;11.10;96474.00;;;;5098510;28;20229;-84
2023/04/27 03:35:12;;;;;;;5.77;2.37;;;11.30;68.10;11.00;96480.00;;;;5095979;28;20250;-84
2023/04/27 03:37:39;;;;;;;3.03;2.50;;;11.20;68.20;11.00;96485.00;;;;5098395;28;20618;-84
2023/04/27 03:40:08;;;;;;;2.70;2.50;;;11.20;68.20;10.90;96484.00;;;;5094322;28;20234;-84
2023/04/27 03:42:37;;;;;;;3.70;2.30;;;11.10;68.10;10.90;96475.00;;;;5096119;28;20302;-84
2023/04/27 03:45:05;;;;;;;2.67;2.47;;;11.10;68.10;10.80;96486.00;;;;5095058;28;20191;-84
2023/04/27 03:47:34;;;;;;;2.17;1.97;;;11.00;68.10;10.70;96480.00;;;;5089289;28;20211;-83
2023/04/27 03:50:01;;;;;;;3.63;2.23;;;11.00;68.00;10.70;96484.00;;;;5095642;28;20648;-83
2023/04/27 03:52:28;;;;;;;2.73;2.37;;;10.90;67.90;10.60;96480.00;;;;5094852;28;20195;-84
2023/04/27 03:54:56;;;;;;;2.80;2.13;;;10.90;67.90;10.60;96487.00;;;;5092567;28;20194;-84
2023/04/27 03:57:23;;;;;;;5.87;2.97;;;10.80;67.90;10.50;96494.00;;;;5095821;28;20192;-84
2023/04/27 03:59:52;;;;;;;2.90;2.70;;;10.80;67.80;10.40;96500.00;;;;5097471;28;20225;-85
2023/04/27 04:02:20;;;;;;;2.47;2.27;;;10.70;67.80;10.30;96487.00;;;;5092120;28;20230;-84
2023/04/27 04:04:48;;;;;;;4.27;2.43;;;10.60;67.80;10.30;96504.00;;;;5093555;28;20227;-84
2023/04/27 04:07:15;;;;;;;2.70;2.50;;;10.50;67.60;10.20;96498.00;;;;5096996;28;20597;-83
2023/04/27 04:09:44;;;;;;;2.80;2.03;;;10.50;67.80;10.10;96496.00;;;;5097230;28;20195;-84
2023/04/27 04:12:11;;;;;;;3.00;2.00;;;10.40;67.90;10.10;96505.00;;;;5097948;28;20274;-84
2023/04/27 04:14:39;;;;;;;3.23;2.37;;;10.30;67.90;10.00;96513.00;;;;5098895;28;20222;-83
2023/04/27 04:17:10;;;;;;;2.67;1.97;;;10.30;67.90;10.00;96505.00;;;;5097247;28;20676;-85
2023/04/27 04:19:37;;;;;;;2.40;2.20;;;10.20;67.90;9.90;96507.00;;;;5091861;28;20187;-83
2023/04/27 04:22:05;;;;;;;2.67;2.13;;;10.20;68.00;9.90;96510.00;;;;5095751;28;20282;-84
2023/04/27 04:24:32;;;;;;;3.03;2.30;;;10.10;68.30;9.90;96514.00;;;;5095327;28;20791;-84
2023/04/27 04:27:00;;;;;;;5.00;2.67;;;10.00;68.50;9.80;96514.00;;;;5095063;28;20270;-86
2023/04/27 04:29:27;;;;;;;2.60;2.40;;;10.00;68.70;9.80;96514.00;;;;5088687;28;20206;-83
2023/04/27 04:31:56;;;;;;;3.73;2.40;;;10.00;68.90;9.80;96525.00;;;;5093584;28;20273;-84
2023/04/27 04:34:25;;;;;;;3.60;2.43;;;10.00;69.20;9.80;96521.00;;;;5085985;28;20226;-88
2023/04/27 04:36:56;;;;;;;2.87;2.57;;;9.90;69.40;9.90;96518.00;;;;5085844;28;20199;-87
2023/04/27 04:39:23;;;;;;;3.10;2.50;;;9.90;69.70;10.00;96515.00;;;;5088686;28;20195;-88
2023/04/27 04:41:51;;;;;;;3.10;2.40;;;9.90;69.70;10.00;96514.00;;;;5088469;28;20199;-88
2023/04/27 04:44:19;;;;;;;4.27;2.50;;;10.00;69.90;10.10;96523.00;;;;5089665;28;20223;-87
2023/04/27 04:46:47;;;;;;;2.87;2.40;;;10.00;70.00;10.10;96517.00;;;;5071526;28;20187;-87
2023/04/27 04:49:14;;;;;;;2.67;2.47;;;10.00;70.10;10.20;96521.00;;;;5088260;28;20203;-87
2023/04/27 04:51:46;;;;;;;3.50;2.80;;;10.00;70.40;10.30;96526.00;;;;5075747;28;20687;-87
2023/04/27 04:54:13;;;;;;;4.17;2.60;;;10.10;70.60;10.30;96522.00;;;;5079043;28;20239;-84
2023/04/27 04:56:41;;;;;;;3.67;2.40;;;10.10;70.60;10.40;96519.00;;;;5093131;28;20685;-85
2023/04/27 04:59:08;;;;;;;2.97;2.50;;;10.20;70.80;10.50;96534.00;;;;5095884;28;20217;-85
2023/04/27 05:01:36;;;;;;;4.33;2.77;;;10.20;70.90;10.60;96537.00;;;;5093419;28;20277;-86
2023/04/27 05:04:03;;;;;;;3.57;2.73;;;10.30;70.90;10.70;96533.00;;;;5086007;28;20306;-85
2023/04/27 05:06:31;;;;;;;4.27;2.60;;;10.40;70.90;10.70;96535.00;;;;5088275;28;20202;-85
2023/04/27 05:08:59;;;;;;;3.37;3.07;;;10.40;71.00;10.80;96534.00;;;;5094527;28;20192;-85
2023/04/27 05:11:26;;;;;;;3.20;2.90;;;10.50;71.20;10.90;96546.00;;;;5094522;28;20223;-84
2023/04/27 05:13:54;;;;;;;3.83;2.47;;;10.60;71.30;11.00;96549.00;;;;5094575;28;20276;-85
2023/04/27 05:16:21;;;;;;;4.00;2.80;;;10.60;71.30;11.00;96554.00;;;;5093788;28;20645;-86
2023/04/27 05:18:48;;;;;;;3.87;2.70;;;10.70;71.40;11.10;96558.00;;;;5094737;28;20226;-86
2023/04/27 05:21:16;;;;;;;6.63;2.80;;;10.80;71.20;11.20;96559.00;;;;5094781;28;20278;-86
2023/04/27 05:23:43;;;;;;;2.90;2.67;;;10.80;71.20;11.30;96557.00;;;;5092894;28;20234;-87
2023/04/27 05:26:20;;;;;;;3.93;3.00;;;10.90;71.20;11.40;96561.00;;;;5091886;28;20199;-86
2023/04/27 05:28:48;;;;;;;3.00;2.60;;;11.50;71.60;11.40;96557.00;;;;5093607;28;20191;-86
2023/04/27 05:31:15;;;;;;;3.50;3.20;;;11.10;71.20;11.50;96553.00;;;;5092469;28;20207;-86
2023/04/27 05:33:43;;;;;;;2.93;2.53;;;11.20;71.10;11.60;96552.00;;;;5091865;28;20685;-86
2023/04/27 05:36:10;;;;;;;3.10;2.80;;;11.20;71.00;11.70;96559.00;;;;5083495;28;20195;-86
2023/04/27 05:38:39;;;;;;;3.90;3.00;;;11.30;71.00;11.70;96556.00;;;;5080043;28;20278;-86
2023/04/27 05:41:06;;;;;;;5.07;2.70;;;11.40;71.90;11.80;96559.00;;;;5084054;28;20223;-86
2023/04/27 05:43:36;;;;;;;3.60;2.83;;;11.40;71.00;11.90;96561.00;;;;5078638;28;20736;-86
2023/04/27 05:46:04;;;;;;;5.33;2.60;;;11.50;70.80;12.00;96565.00;;;;5088531;28;20200;-86
2023/04/27 05:48:31;;;;;;;2.80;2.60;;;11.60;70.50;12.00;96567.00;;;;5088130;28;20265;-87
2023/04/27 05:51:02;;;;;;;4.00;2.80;;;11.60;70.00;12.10;96562.00;;;;5094423;28;20195;-85
2023/04/27 05:53:30;;;;;;;3.13;2.90;;;11.70;69.70;12.10;96572.00;;;;5093647;28;20318;-86
2023/04/27 05:55:58;;;;;;;3.23;2.97;;;11.80;69.70;12.20;96571.00;;;;5091865;28;20717;-86
2023/04/27 05:58:25;;;;;;;5.20;3.50;;;11.80;69.80;12.30;96582.00;;;;5092961;28;20270;-85
2023/04/27 06:00:55;;;;;;;4.03;3.20;;;11.90;69.50;12.40;96585.00;;;;5093146;28;20284;-85
2023/04/27 06:03:22;;;;;;;5.30;3.47;;;11.90;69.30;12.40;96583.00;;;;5092957;28;20211;-86
2023/04/27 06:05:55;;;;;;;3.60;3.13;;;12.00;69.60;12.50;96589.00;;;;5090588;28;20226;-86
2023/04/27 06:08:24;;;;;;;3.77;3.00;;;12.10;69.60;12.60;96582.00;;;;5090972;28;20195;-86
2023/04/27 06:10:51;;;;;;;6.63;3.77;;;12.10;69.50;12.60;96581.00;;;;5093194;28;20195;-85
2023/04/27 06:13:19;;;;;;;6.30;5.40;;;12.20;69.50;12.70;96581.00;;;;5088952;28;20264;-86
2023/04/27 06:15:47;;;;;;;4.83;3.70;;;12.30;69.60;12.80;96582.00;;;;5092921;28;20725;-86
2023/04/27 06:18:16;;;;;;;3.70;3.40;;;12.40;69.70;12.90;96584.00;;;;5092283;28;20207;-85
2023/04/27 06:20:43;;;;;;;3.53;3.20;;;12.40;69.60;12.90;96582.00;;;;5092771;28;20569;-85
2023/04/27 06:23:10;;;;;;;3.87;3.40;;;12.50;69.50;13.00;96584.00;;;;5087194;28;20272;-85
2023/04/27 06:25:39;;;;;;;3.73;3.00;;;12.60;69.30;13.10;96592.00;;;;5087420;28;20199;-86
2023/04/27 06:28:06;;;;;;;2.87;2.63;;;12.60;69.40;13.20;96585.00;;;;5091791;28;20223;-85
2023/04/27 06:30:33;;;;;;;3.27;2.97;;;12.70;69.40;13.30;96591.00;;;;5092859;28;20231;-86
2023/04/27 06:33:01;;;;;;;3.73;3.03;;;12.80;69.30;13.40;96596.00;;;;5092031;28;20698;-85
2023/04/27 06:35:31;;;;;;;3.27;2.93;;;12.90;69.10;13.50;96599.00;;;;5090182;28;20218;-86
2023/04/27 06:37:58;;;;;;;3.17;2.87;;;13.00;69.20;13.60;96590.00;;;;5091577;28;20274;-85
2023/04/27 06:40:26;;;;;;;3.30;2.80;;;13.00;69.20;13.70;96598.00;;;;5091454;28;20192;-85
2023/04/27 06:42:53;;;;;;;3.00;2.80;;;13.10;69.20;13.80;96598.00;;;;5091130;28;20649;-85
2023/04/27 06:45:32;;;;;;;3.33;3.03;;;13.20;69.10;13.90;96585.00;;;;5095900;28;20227;-85
2023/04/27 06:48:00;;;;;;;3.93;3.50;;;13.30;68.70;14.00;96600.00;;;;5084792;28;20234;-86
2023/04/27 06:50:29;;;;;;;3.97;3.10;;;13.40;68.40;14.00;96603.00;;;;5078983;28;20218;-85
2023/04/27 06:52:57;;;;;;;3.47;2.90;;;13.50;68.10;14.10;96600.00;;;;5088723;28;20219;-85
2023/04/27 06:55:24;;;;;;;2.97;2.77;;;13.60;68.10;14.20;96608.00;;;;5092435;28;20481;-85
2023/04/27 06:57:52;;;;;;;3.00;2.70;;;13.70;67.80;14.30;96610.00;;;;5088008;28;20200;-85
2023/04/27 07:00:20;;;;;;;3.20;2.90;;;13.70;67.20;14.40;96616.00;;;;5093375;28;20211;-85
2023/04/27 07:02:47;;;;;;;3.53;3.00;;;13.80;67.30;14.50;96613.00;;;;5104926;28;20278;-85
2023/04/27 07:05:15;;;;;;;4.37;2.87;;;13.90;67.50;14.50;96610.00;;;;5114135;28;20214;-86
2023/04/27 07:07:44;;;;;;;4.37;3.50;;;14.00;67.50;14.60;96618.00;;;;5091655;28;20211;-85
2023/04/27 07:10:12;;;;;;;2.83;2.37;;;14.10;67.40;14.80;96620.00;;;;5084592;28;20238;-85
2023/04/27 07:12:41;;;;;;;3.90;3.03;;;14.10;66.60;14.80;96618.00;;;;5095473;28;20222;-85
2023/04/27 07:15:10;;;;;;;3.37;3.07;;;14.20;66.50;14.90;96622.00;;;;5084721;28;20700;-86
2023/04/27 07:17:38;;;;;;;3.60;3.30;;;14.30;66.40;15.00;96620.00;;;;5089351;28;20199;-86
2023/04/27 07:20:08;;;;;;;3.70;3.00;;;14.40;66.30;15.10;96622.00;;;;5072064;28;20199;-85
2023/04/27 07:22:35;;;;;;;3.47;3.13;;;14.50;66.30;15.20;96613.00;;;;5086754;28;20299;-85
2023/04/27 07:25:05;;;;;;;5.90;3.40;;;14.60;66.30;15.30;96619.00;;;;5081997;28;20199;-85
2023/04/27 07:27:34;;;;;;;6.23;3.30;;;14.70;66.20;15.40;96614.00;;;;5082415;28;20187;-85
2023/04/27 07:30:01;;;;;;;3.40;3.10;;;14.80;66.30;15.50;96615.00;;;;5090317;28;20195;-85
2023/04/27 07:32:30;;;;;;;3.27;3.00;;;14.80;66.10;15.60;96613.00;;;;5080057;28;20202;-85
2023/04/27 07:34:57;;;;;;;3.53;2.80;;;14.90;65.80;15.70;96613.00;;;;5082902;28;20238;-85
2023/04/27 07:37:25;;;;;;;3.17;2.87;;;15.00;65.50;15.80;96620.00;;;;5083333;28;20202;-85
2023/04/27 07:39:53;;;;;;;4.30;3.87;;;15.10;65.50;15.80;96624.00;;;;5087958;28;20626;-85
2023/04/27 07:42:22;;;;;;;4.67;3.53;;;15.20;65.00;15.90;96622.00;;;;5092563;28;20203;-84
2023/04/27 07:44:50;;;;;;;4.70;3.23;;;15.20;64.10;16.00;96624.00;;;;5089163;28;20191;-85
2023/04/27 07:47:19;;;;;;;3.33;3.03;;;15.30;64.40;16.00;96633.00;;;;5089558;28;20565;-85
2023/04/27 07:49:47;;;;;;;3.63;3.13;;;15.30;64.80;16.10;96630.00;;;;5090604;28;20283;-85
2023/04/27 07:52:14;;;;;;;4.00;3.10;;;15.40;65.00;16.20;96634.00;;;;5093948;28;20191;-86
2023/04/27 07:54:42;;;;;;;3.93;3.20;;;15.50;64.90;16.30;96626.00;;;;5109375;28;20226;-87
2023/04/27 07:57:10;;;;;;;4.67;3.40;;;15.60;64.70;16.40;96635.00;;;;5092357;28;20223;-86
2023/04/27 07:59:39;;;;;;;5.00;3.33;;;15.60;64.40;16.40;96630.00;;;;5087812;28;20225;-86
2023/04/27 08:02:07;;;;;;;3.60;3.20;;;15.70;64.40;16.50;96625.00;;;;5084285;28;20434;-86
2023/04/27 08:04:34;;;;;;;4.43;3.17;;;15.80;64.80;16.60;96636.00;;;;5077333;28;20733;-85
2023/04/27 08:07:01;;;;;;;4.60;3.50;;;15.90;64.60;16.70;96626.00;;;;5090392;28;20272;-86
2023/04/27 08:09:29;;;;;;;3.93;3.50;;;16.00;63.90;16.80;96628.00;;;;5082249;28;20660;-85
2023/04/27 08:11:57;;;;;;;4.17;2.80;;;16.00;63.40;16.90;96632.00;;;;5092008;28;20283;-85
2023/04/27 08:14:25;;;;;;;4.43;3.33;;;16.10;63.40;17.00;96639.00;;;;5091601;28;20306;-85
2023/04/27 08:16:53;;;;;;;4.53;3.23;;;16.20;63.40;17.10;96643.00;;;;5092446;28;20206;-87
2023/04/27 08:19:20;;;;;;;4.57;3.23;;;16.30;63.30;17.20;96645.00;;;;5084840;28;20199;-85
2023/04/27 08:21:48;;;;;;;3.40;2.73;;;16.30;63.40;17.30;96647.00;;;;5091095;28;20861;-85
2023/04/27 08:24:15;;;;;;;3.20;2.90;;;16.50;63.60;17.40;96639.00;;;;5090451;28;20390;-86
2023/04/27 08:26:42;;;;;;;2.77;2.57;;;16.60;63.60;17.50;96637.00;;;;5089691;28;20742;-85
2023/04/27 08:29:09;;;;;;;2.97;2.77;;;16.70;63.60;17.70;96647.00;;;;5091858;28;20234;-84
2023/04/27 08:31:36;;;;;;;5.00;3.00;;;16.80;63.50;17.80;96643.00;;;;5089433;28;20203;-85
2023/04/27 08:34:05;;;;;;;3.23;2.53;;;16.90;63.20;18.00;96648.00;;;;5092736;28;20752;-85
2023/04/27 08:36:33;;;;;;;3.37;3.03;;;17.00;62.30;18.10;96641.00;;;;5097244;28;20191;-84
2023/04/27 08:39:00;;;;;;;4.57;2.80;;;17.10;62.10;18.20;96645.00;;;;5095085;28;20594;-86
2023/04/27 08:41:27;;;;;;;3.30;2.90;;;17.20;62.00;18.30;96654.00;;;;5095546;28;20199;-85
2023/04/27 08:43:54;;;;;;;4.07;3.20;;;17.40;61.70;18.40;96654.00;;;;5095385;28;20207;-85
2023/04/27 08:46:25;;;;;;;4.53;2.53;;;17.40;60.90;18.50;96648.00;;;;5095929;28;20291;-85
2023/04/27 08:48:53;;;;;;;2.70;2.47;;;17.50;60.50;18.60;96658.00;;;;5090974;28;20203;-85
2023/04/27 08:51:24;;;;;;;3.03;2.60;;;17.60;60.80;18.70;96655.00;;;;5074529;28;20196;-85
2023/04/27 08:53:55;;;;;;;2.73;2.20;;;17.70;60.20;18.70;96657.00;;;;5091982;28;20264;-85
2023/04/27 08:56:25;;;;;;;3.07;2.50;;;17.80;60.60;18.80;96659.00;;;;5095086;28;20298;-85
2023/04/27 08:58:52;;;;;;;2.27;2.07;;;17.90;60.60;18.90;96656.00;;;;5091659;28;20267;-85
2023/04/27 09:01:19;;;;;;;2.50;2.27;;;18.00;60.10;19.00;96650.00;;;;5096243;28;21228;-86
2023/04/27 09:03:47;;;;;;;3.40;2.47;;;18.10;59.90;19.10;96656.00;;;;5059447;28;20208;-84
2023/04/27 09:06:15;;;;;;;3.30;2.40;;;18.20;59.40;19.20;96652.00;;;;5093498;28;20287;-85
2023/04/27 09:08:46;;;;;;;2.63;2.20;;;18.30;58.40;19.30;96655.00;;;;5101036;28;20413;-85
2023/04/27 09:11:14;;;;;;;5.60;2.30;;;18.40;57.70;19.50;96651.00;;;;5100371;28;20675;-85
2023/04/27 09:13:44;;;;;;;3.70;2.27;;;18.50;57.90;19.60;96651.00;;;;5097625;28;20641;-85
2023/04/27 09:16:13;;;;;;;2.47;2.23;;;18.60;57.90;19.80;96644.00;;;;5094579;28;20223;-84
2023/04/27 09:18:44;;;;;;;2.90;2.70;;;18.70;57.70;20.00;96646.00;;;;5095425;28;20202;-85
2023/04/27 09:21:11;;;;;;;2.77;2.57;;;18.80;57.80;20.20;96657.00;;;;5092833;28;20194;-85
2023/04/27 09:23:40;;;;;;;2.47;2.27;;;19.00;57.80;20.50;96647.00;;;;5091354;28;20769;-84
2023/04/27 09:26:09;;;;;;;2.33;2.13;;;19.20;57.70;20.80;96658.00;;;;5095477;28;20281;-84
2023/04/27 09:28:40;;;;;;;2.53;2.33;;;19.40;57.70;21.00;96650.00;;;;5100108;28;20605;-81
2023/04/27 09:31:07;;;;;;;2.63;2.43;;;19.60;56.90;21.20;96648.00;;;;5100595;28;20191;-84
2023/04/27 09:33:38;;;;;;;3.63;2.13;;;19.80;56.80;21.40;96644.00;;;;5100445;28;20707;-84
2023/04/27 09:36:07;;;;;;;2.33;2.13;;;19.90;56.50;21.60;96651.00;;;;5093486;28;20567;-85
2023/04/27 09:38:34;;;;;;;3.13;2.70;;;20.10;55.70;21.70;96651.00;;;;5095808;28;20199;-85
2023/04/27 09:41:03;;;;;;;5.20;2.57;;;20.30;55.80;21.80;96635.00;;;;5096584;28;20200;-82
2023/04/27 09:43:32;;;;;;;2.67;2.13;;;20.40;55.40;22.00;96638.00;;;;5099574;28;20304;-83
2023/04/27 09:46:00;;;;;;;3.53;2.60;;;20.50;54.60;22.10;96643.00;;;;5093577;28;20225;-83
2023/04/27 09:48:29;;;;;;;4.70;2.50;;;20.60;55.00;22.20;96644.00;;;;5088538;28;20209;-83
2023/04/27 09:50:56;;;;;;;3.30;2.43;;;20.80;54.20;22.30;96633.00;;;;5099419;28;20219;-83
2023/04/27 09:53:30;;;;;;;3.50;2.30;;;20.90;54.60;22.40;96639.00;;;;5099996;28;20284;-82
2023/04/27 09:56:20;;;;;;;4.40;2.03;;;21.00;53.70;22.40;96645.00;;;;5098114;28;20259;-84
2023/04/27 09:59:25;;;;;;;2.70;1.90;;;21.10;53.40;22.60;96636.00;;;;5096994;28;20202;-84
2023/04/27 10:01:59;;;;;;;1.87;1.77;;;21.30;52.60;22.70;96640.00;;;;5089518;28;20203;-84
2023/04/27 10:04:55;;;;;;;3.33;1.90;;;21.40;53.90;22.90;96632.00;;;;5096781;28;20219;-82
2023/04/27 10:07:22;;;;;;;2.57;2.00;;;21.60;54.00;23.00;96635.00;;;;5098856;28;20196;-82
2023/04/27 10:09:51;;;;;;;2.70;2.50;;;21.80;54.20;23.10;96630.00;;;;5095569;28;20304;-83
2023/04/27 10:12:21;;;;;;;2.50;2.30;;;22.00;53.60;23.20;96626.00;;;;5097011;28;20748;-84
2023/04/27 10:14:55;;;;;;;2.47;2.23;;;22.10;53.00;23.20;96626.00;;;;5095806;28;20570;-83
2023/04/27 10:17:31;;;;;;;2.70;2.00;;;22.20;52.10;23.20;96623.00;;;;5098267;28;20194;-84
2023/04/27 10:20:01;;;;;;;3.60;2.47;;;22.30;51.30;23.20;96623.00;;;;5101346;28;20204;-91
2023/04/27 10:22:39;;;;;;;2.60;2.40;;;22.40;52.00;23.30;96621.00;;;;5108358;28;20197;-82
2023/04/27 10:25:17;;;;;;;3.03;2.07;;;22.50;51.70;23.50;96623.00;;;;5100894;28;20278;-85
2023/04/27 10:27:50;;;;;;;3.33;2.57;;;22.60;52.50;23.60;96627.00;;;;5098155;28;20203;-83
2023/04/27 10:30:21;;;;;;;2.60;2.40;;;22.70;52.90;23.80;96624.00;;;;5101345;28;20734;-81
2023/04/27 10:32:55;;;;;;;2.70;2.37;;;22.90;52.50;23.80;96628.00;;;;5096382;28;20283;-83
2023/04/27 10:35:33;;;;;;;2.40;2.00;;;23.10;51.60;23.90;96627.00;;;;5098223;28;20240;-82
2023/04/27 10:38:08;;;;;;;2.57;2.37;;;23.20;51.30;23.90;96618.00;;;;5095284;28;20193;-85
2023/04/27 10:40:38;;;;;;;4.10;2.70;;;23.30;50.70;23.90;96622.00;;;;5096595;28;20217;-83
2023/04/27 10:43:10;;;;;;;3.87;2.27;;;23.50;52.30;24.00;96626.00;;;;5098802;28;20301;-84
2023/04/27 10:45:39;;;;;;;2.37;2.23;;;23.60;51.50;24.10;96624.00;;;;5098479;28;20682;-84
2023/04/27 10:48:07;;;;;;;2.83;2.27;;;23.60;51.50;24.10;96620.00;;;;5091636;28;20228;-84
2023/04/27 10:50:35;;;;;;;2.53;2.33;;;23.70;50.50;24.00;96613.00;;;;5090450;28;20730;-85
2023/04/27 10:53:07;;;;;;;2.90;2.70;;;23.70;49.50;23.90;96615.00;;;;5095889;28;20217;-85
2023/04/27 10:55:36;;;;;;;2.47;2.20;;;23.70;48.80;23.70;96619.00;;;;5094607;28;20219;-85
2023/04/27 10:58:04;;;;;;;2.37;2.17;;;23.60;48.40;23.50;96612.00;;;;5093853;28;20293;-85
2023/04/27 11:00:34;;;;;;;2.83;2.63;;;23.40;47.90;23.30;96613.00;;;;5092376;28;20225;-84